createdAt,value
2018-01-16T00:00:36.453Z,11.5
2018-01-16T00:01:38.175Z,11.3
2018-01-16T00:02:39.885Z,11.5
2018-01-16T00:03:41.610Z,11.3
2018-01-16T00:04:43.346Z,11.4
2018-01-16T00:05:45.053Z,11.4
2018-01-16T00:06:46.809Z,11.3
2018-01-16T00:07:48.513Z,11.4
2018-01-16T00:08:50.230Z,11.4
2018-01-16T00:09:52.044Z,11.3
2018-01-16T00:10:53.792Z,11.4
2018-01-16T00:11:55.691Z,11.4
2018-01-16T00:12:57.367Z,11.3
2018-01-16T00:13:59.145Z,11.3
2018-01-16T00:15:00.931Z,11.3
2018-01-16T00:16:02.640Z,11.3
2018-01-16T00:17:04.500Z,11.3
2018-01-16T00:18:06.227Z,11.3
2018-01-16T00:19:08.105Z,11.3
2018-01-16T00:20:09.843Z,11.3
2018-01-16T00:21:11.566Z,11.3
2018-01-16T00:22:13.303Z,11.3
2018-01-16T00:23:15.064Z,11.2
2018-01-16T00:24:16.776Z,11.3
2018-01-16T00:25:18.576Z,11.4
2018-01-16T00:26:20.342Z,11.3
2018-01-16T00:27:22.053Z,11.3
2018-01-16T00:28:23.774Z,11.4
2018-01-16T00:29:25.510Z,11.3
2018-01-16T00:30:27.336Z,11.3
2018-01-16T00:31:29.181Z,11.3
2018-01-16T00:32:30.905Z,11.3
2018-01-16T00:33:32.622Z,11.3
2018-01-16T00:34:34.460Z,11.3
2018-01-16T00:35:36.261Z,11.3
2018-01-16T00:36:38.016Z,11.3
2018-01-16T00:37:39.814Z,11.3
2018-01-16T00:38:41.618Z,11.3
2018-01-16T00:39:43.340Z,11.3
2018-01-16T00:40:46.666Z,11.3
2018-01-16T00:41:48.405Z,11.3
2018-01-16T00:42:50.991Z,11.2
2018-01-16T00:43:52.991Z,11.3
2018-01-16T00:44:54.783Z,11.2
2018-01-16T00:45:56.543Z,11.2
2018-01-16T00:46:58.282Z,11.2
2018-01-16T00:48:00.077Z,11.2
2018-01-16T00:49:02.046Z,11.2
2018-01-16T00:50:03.774Z,11.2
2018-01-16T00:51:05.551Z,11.2
2018-01-16T00:52:07.318Z,11.2
2018-01-16T00:53:09.111Z,11.3
2018-01-16T00:54:10.910Z,11.3
2018-01-16T00:55:15.647Z,11.3
2018-01-16T00:56:17.856Z,11.3
2018-01-16T00:57:19.681Z,11.2
2018-01-16T00:58:22.621Z,11.3
2018-01-16T00:59:28.055Z,11.2
2018-01-16T01:00:29.826Z,11.4
2018-01-16T01:01:31.590Z,11.3
2018-01-16T01:02:33.354Z,11.3
2018-01-16T01:03:35.186Z,11.2
2018-01-16T01:04:37.799Z,11.2
2018-01-16T01:05:39.534Z,11.2
2018-01-16T01:06:41.369Z,11.2
2018-01-16T01:07:43.196Z,11.2
2018-01-16T01:08:45.062Z,11.2
2018-01-16T01:09:46.878Z,11.2
2018-01-16T01:10:48.691Z,11.3
2018-01-16T01:11:50.571Z,11.2
2018-01-16T01:12:52.527Z,11.2
2018-01-16T01:13:54.574Z,11.2
2018-01-16T01:14:56.524Z,11.2
2018-01-16T01:15:58.424Z,11.2
2018-01-16T01:17:00.347Z,11.2
2018-01-16T01:18:02.278Z,11.3
2018-01-16T01:19:04.166Z,11.2
2018-01-16T01:20:05.910Z,11.3
2018-01-16T01:21:07.611Z,11.3
2018-01-16T01:22:09.353Z,11.2
2018-01-16T01:23:11.119Z,11.2
2018-01-16T01:24:12.843Z,11.2
2018-01-16T01:25:14.551Z,11.2
2018-01-16T01:26:16.368Z,11.3
2018-01-16T01:27:18.071Z,11.2
2018-01-16T01:28:19.802Z,11.2
2018-01-16T01:29:21.506Z,11.3
2018-01-16T01:30:23.274Z,11.2
2018-01-16T01:31:24.973Z,11.3
2018-01-16T01:32:26.756Z,11.2
2018-01-16T01:33:28.501Z,11.2
2018-01-16T01:34:30.208Z,11.2
2018-01-16T01:35:31.958Z,11.3
2018-01-16T01:36:33.724Z,11.2
2018-01-16T01:37:35.447Z,11.3
2018-01-16T01:38:37.181Z,11.2
2018-01-16T01:39:38.902Z,11.2
2018-01-16T01:40:40.660Z,11.2
2018-01-16T01:41:42.386Z,11.2
2018-01-16T01:42:44.118Z,11.3
2018-01-16T01:43:45.850Z,11.3
2018-01-16T01:44:47.567Z,11.2
2018-01-16T01:45:49.307Z,11.2
2018-01-16T01:46:51.022Z,11.2
2018-01-16T01:47:52.730Z,11.2
2018-01-16T01:48:54.461Z,11.2
2018-01-16T01:49:56.191Z,11.2
2018-01-16T01:50:57.903Z,11.3
2018-01-16T01:51:59.612Z,11.2
2018-01-16T01:53:01.347Z,11.3
2018-01-16T01:54:03.088Z,11.2
2018-01-16T01:55:04.807Z,11.1
2018-01-16T01:56:06.578Z,11.2
2018-01-16T01:57:08.312Z,11.2
2018-01-16T01:58:10.047Z,11.2
2018-01-16T01:59:11.771Z,11.2
2018-01-16T02:00:13.575Z,11.2
2018-01-16T02:01:15.286Z,11.3
2018-01-16T02:02:17.059Z,11.2
2018-01-16T02:03:18.799Z,11.2
2018-01-16T02:04:20.532Z,11.2
2018-01-16T02:05:22.277Z,11.3
2018-01-16T02:06:24.055Z,11.2
2018-01-16T02:07:25.787Z,11.2
2018-01-16T02:08:27.554Z,11.2
2018-01-16T02:09:29.290Z,11.2
2018-01-16T02:10:31.070Z,11.2
2018-01-16T02:11:32.808Z,11.1
2018-01-16T02:12:34.542Z,11.2
2018-01-16T02:13:36.259Z,11.1
2018-01-16T02:14:38.027Z,11.1
2018-01-16T02:15:39.749Z,11.1
2018-01-16T02:16:41.470Z,11.1
2018-01-16T02:17:43.186Z,11.0
2018-01-16T02:18:44.913Z,11.0
2018-01-16T02:19:46.718Z,11.0
2018-01-16T02:20:48.440Z,11.0
2018-01-16T02:21:50.154Z,11.0
2018-01-16T02:22:51.903Z,11.0
2018-01-16T02:23:53.625Z,11.1
2018-01-16T02:24:55.339Z,11.1
2018-01-16T02:25:57.083Z,11.0
2018-01-16T02:26:58.781Z,11.0
2018-01-16T02:28:00.496Z,11.0
2018-01-16T02:29:02.266Z,11.0
2018-01-16T02:30:03.992Z,11.0
2018-01-16T02:31:05.686Z,10.9
2018-01-16T02:32:07.435Z,10.9
2018-01-16T02:33:09.176Z,10.8
2018-01-16T02:34:10.882Z,10.7
2018-01-16T02:35:12.604Z,10.7
2018-01-16T02:36:14.325Z,10.8
2018-01-16T02:37:16.057Z,10.8
2018-01-16T02:38:17.764Z,10.7
2018-01-16T02:39:19.479Z,10.7
2018-01-16T02:40:21.215Z,10.7
2018-01-16T02:41:22.938Z,10.6
2018-01-16T02:42:24.659Z,10.6
2018-01-16T02:43:26.365Z,10.7
2018-01-16T02:44:28.079Z,10.5
2018-01-16T02:45:29.798Z,10.6
2018-01-16T02:46:31.531Z,10.5
2018-01-16T02:47:33.322Z,10.5
2018-01-16T02:48:35.080Z,10.5
2018-01-16T02:49:36.824Z,10.5
2018-01-16T02:50:38.557Z,10.5
2018-01-16T02:51:40.306Z,10.5
2018-01-16T02:52:42.097Z,10.5
2018-01-16T02:53:43.813Z,10.5
2018-01-16T02:54:45.533Z,10.5
2018-01-16T02:55:47.280Z,10.5
2018-01-16T02:56:49.035Z,10.4
2018-01-16T02:57:50.774Z,10.5
2018-01-16T02:58:52.489Z,10.5
2018-01-16T02:59:54.202Z,10.5
2018-01-16T03:00:55.931Z,10.5
2018-01-16T03:01:57.648Z,10.4
2018-01-16T03:02:59.348Z,10.5
2018-01-16T03:04:01.081Z,10.4
2018-01-16T03:05:02.865Z,10.5
2018-01-16T03:06:04.725Z,10.4
2018-01-16T03:07:06.442Z,10.4
2018-01-16T03:08:08.136Z,10.4
2018-01-16T03:09:09.849Z,10.4
2018-01-16T03:10:11.547Z,10.4
2018-01-16T03:11:13.262Z,10.4
2018-01-16T03:12:14.984Z,10.4
2018-01-16T03:13:16.703Z,10.4
2018-01-16T03:14:18.468Z,10.4
2018-01-16T03:15:20.231Z,10.4
2018-01-16T03:16:22.003Z,10.4
2018-01-16T03:17:23.703Z,10.4
2018-01-16T03:18:25.405Z,10.4
2018-01-16T03:19:27.115Z,10.4
2018-01-16T03:20:28.830Z,10.4
2018-01-16T03:21:30.541Z,10.4
2018-01-16T03:22:32.263Z,10.4
2018-01-16T03:23:33.967Z,10.4
2018-01-16T03:24:35.676Z,10.4
2018-01-16T03:25:37.400Z,10.4
2018-01-16T03:26:39.144Z,10.4
2018-01-16T03:27:40.874Z,10.4
2018-01-16T03:28:42.599Z,10.3
2018-01-16T03:29:44.329Z,10.4
2018-01-16T03:30:46.050Z,10.4
2018-01-16T03:31:47.763Z,10.4
2018-01-16T03:32:49.494Z,10.4
2018-01-16T03:33:51.203Z,10.4
2018-01-16T03:34:52.908Z,10.4
2018-01-16T03:35:54.626Z,10.4
2018-01-16T03:36:56.332Z,10.4
2018-01-16T03:37:58.047Z,10.4
2018-01-16T03:38:59.752Z,10.3
2018-01-16T03:40:01.474Z,10.4
2018-01-16T03:41:03.307Z,10.4
2018-01-16T03:42:05.017Z,10.4
2018-01-16T03:43:06.775Z,10.4
2018-01-16T03:44:08.488Z,10.4
2018-01-16T03:45:10.231Z,10.4
2018-01-16T03:46:11.985Z,10.3
2018-01-16T03:47:13.709Z,10.4
2018-01-16T03:48:15.411Z,10.4
2018-01-16T03:49:17.120Z,10.4
2018-01-16T03:50:18.846Z,10.4
2018-01-16T03:51:20.552Z,10.3
2018-01-16T03:52:22.261Z,10.4
2018-01-16T03:53:24.051Z,10.4
2018-01-16T03:54:25.757Z,10.3
2018-01-16T03:55:27.481Z,10.3
2018-01-16T03:56:29.222Z,10.4
2018-01-16T03:57:30.975Z,10.4
2018-01-16T03:58:32.694Z,10.4
2018-01-16T03:59:34.400Z,10.3
2018-01-16T04:00:36.115Z,10.3
2018-01-16T04:01:37.869Z,10.2
2018-01-16T04:02:39.594Z,10.3
2018-01-16T04:03:41.325Z,10.3
2018-01-16T04:04:43.023Z,10.2
2018-01-16T04:05:44.720Z,10.2
2018-01-16T04:06:46.446Z,10.1
2018-01-16T04:07:48.167Z,10.2
2018-01-16T04:08:49.906Z,10.3
2018-01-16T04:09:51.617Z,10.3
2018-01-16T04:10:53.331Z,10.3
2018-01-16T04:11:55.075Z,10.2
2018-01-16T04:12:56.768Z,10.2
2018-01-16T04:13:58.508Z,10.2
2018-01-16T04:15:00.234Z,10.2
2018-01-16T04:16:01.959Z,10.2
2018-01-16T04:17:03.748Z,10.2
2018-01-16T04:18:05.486Z,10.2
2018-01-16T04:19:07.207Z,10.2
2018-01-16T04:20:09.011Z,10.2
2018-01-16T04:21:10.877Z,10.2
2018-01-16T04:22:12.582Z,10.2
2018-01-16T04:23:14.391Z,10.2
2018-01-16T04:24:16.083Z,10.2
2018-01-16T04:25:17.797Z,10.2
2018-01-16T04:26:19.579Z,10.3
2018-01-16T04:27:21.299Z,10.2
2018-01-16T04:28:23.009Z,10.3
2018-01-16T04:29:24.729Z,10.3
2018-01-16T04:30:26.459Z,10.3
2018-01-16T04:31:28.190Z,10.3
2018-01-16T04:32:29.922Z,10.3
2018-01-16T04:33:31.699Z,10.3
2018-01-16T04:34:33.433Z,10.2
2018-01-16T04:35:35.226Z,10.3
2018-01-16T04:36:36.942Z,10.3
2018-01-16T04:37:38.674Z,10.4
2018-01-16T04:38:40.446Z,10.3
2018-01-16T04:39:42.180Z,10.3
2018-01-16T04:40:43.908Z,10.3
2018-01-16T04:41:45.595Z,10.3
2018-01-16T04:42:47.309Z,10.3
2018-01-16T04:43:49.026Z,10.3
2018-01-16T04:44:50.794Z,10.4
2018-01-16T04:45:52.491Z,10.4
2018-01-16T04:46:54.214Z,10.4
2018-01-16T04:47:55.921Z,10.4
2018-01-16T04:48:57.657Z,10.4
2018-01-16T04:49:59.386Z,10.3
2018-01-16T04:51:01.134Z,10.4
2018-01-16T04:52:02.845Z,10.3
2018-01-16T04:53:04.666Z,10.3
2018-01-16T04:54:06.431Z,10.4
2018-01-16T04:55:08.153Z,10.3
2018-01-16T04:56:09.870Z,10.4
2018-01-16T04:57:11.580Z,10.4
2018-01-16T04:58:13.263Z,10.4
2018-01-16T04:59:14.983Z,10.4
2018-01-16T05:00:16.707Z,10.3
2018-01-16T05:01:18.451Z,10.4
2018-01-16T05:02:20.160Z,10.3
2018-01-16T05:03:21.916Z,10.4
2018-01-16T05:04:23.664Z,10.4
2018-01-16T05:05:25.451Z,10.4
2018-01-16T05:06:27.187Z,10.4
2018-01-16T05:07:28.904Z,10.4
2018-01-16T05:08:30.609Z,10.4
2018-01-16T05:09:32.311Z,10.4
2018-01-16T05:10:34.070Z,10.4
2018-01-16T05:11:35.795Z,10.4
2018-01-16T05:12:37.499Z,10.4
2018-01-16T05:13:39.228Z,10.4
2018-01-16T05:14:40.942Z,10.4
2018-01-16T05:15:42.650Z,10.4
2018-01-16T05:16:44.907Z,10.4
2018-01-16T05:17:46.647Z,10.5
2018-01-16T05:18:48.375Z,10.5
2018-01-16T05:19:50.109Z,10.4
2018-01-16T05:20:51.844Z,10.4
2018-01-16T05:21:53.554Z,10.5
2018-01-16T05:22:55.298Z,10.4
2018-01-16T05:23:57.022Z,10.5
2018-01-16T05:24:58.713Z,10.4
2018-01-16T05:26:00.407Z,10.5
2018-01-16T05:27:02.110Z,10.4
2018-01-16T05:28:03.834Z,10.5
2018-01-16T05:29:05.548Z,10.4
2018-01-16T05:30:07.310Z,10.4
2018-01-16T05:31:09.032Z,10.4
2018-01-16T05:32:10.772Z,10.5
2018-01-16T05:33:12.549Z,10.4
2018-01-16T05:34:14.255Z,10.5
2018-01-16T05:35:15.971Z,10.5
2018-01-16T05:36:17.683Z,10.5
2018-01-16T05:37:19.395Z,10.5
2018-01-16T05:38:21.104Z,10.5
2018-01-16T05:39:22.851Z,10.5
2018-01-16T05:40:24.552Z,10.5
2018-01-16T05:41:26.298Z,10.5
2018-01-16T05:42:28.001Z,10.5
2018-01-16T05:43:29.740Z,10.5
2018-01-16T05:44:31.459Z,10.5
2018-01-16T05:45:33.171Z,10.5
2018-01-16T05:46:34.893Z,10.5
2018-01-16T05:47:36.636Z,10.4
2018-01-16T05:48:38.359Z,10.5
2018-01-16T05:49:40.077Z,10.5
2018-01-16T05:50:41.790Z,10.5
2018-01-16T05:51:43.506Z,10.5
2018-01-16T05:52:45.216Z,10.5
2018-01-16T05:53:46.939Z,10.5
2018-01-16T05:54:48.662Z,10.5
2018-01-16T05:55:50.391Z,10.5
2018-01-16T05:56:52.151Z,10.6
2018-01-16T05:57:53.881Z,10.5
2018-01-16T05:58:55.590Z,10.5
2018-01-16T05:59:57.338Z,10.5
2018-01-16T06:00:59.053Z,10.5
2018-01-16T06:02:00.780Z,10.5
2018-01-16T06:03:02.501Z,10.5
2018-01-16T06:04:04.225Z,10.5
2018-01-16T06:05:06.010Z,10.5
2018-01-16T06:06:07.727Z,10.5
2018-01-16T06:07:09.449Z,10.6
2018-01-16T06:08:11.160Z,10.7
2018-01-16T06:09:12.875Z,10.6
2018-01-16T06:10:14.641Z,10.6
2018-01-16T06:11:16.371Z,10.6
2018-01-16T06:12:18.076Z,10.6
2018-01-16T06:13:19.782Z,10.6
2018-01-16T06:14:21.576Z,10.6
2018-01-16T06:15:23.334Z,10.5
2018-01-16T06:16:25.081Z,10.6
2018-01-16T06:17:26.802Z,10.7
2018-01-16T06:18:28.570Z,10.7
2018-01-16T06:19:30.296Z,10.6
2018-01-16T06:20:32.020Z,10.7
2018-01-16T06:21:33.749Z,10.6
2018-01-16T06:22:35.456Z,10.6
2018-01-16T06:23:37.169Z,10.7
2018-01-16T06:24:38.892Z,10.7
2018-01-16T06:25:40.588Z,10.6
2018-01-16T06:26:42.320Z,10.6
2018-01-16T06:27:44.075Z,10.6
2018-01-16T06:28:45.775Z,10.7
2018-01-16T06:29:47.506Z,10.6
2018-01-16T06:30:49.212Z,10.6
2018-01-16T06:31:50.959Z,10.6
2018-01-16T06:32:52.669Z,10.7
2018-01-16T06:33:54.371Z,10.6
2018-01-16T06:34:56.068Z,10.7
2018-01-16T06:35:57.795Z,10.7
2018-01-16T06:36:59.508Z,10.7
2018-01-16T06:38:01.229Z,10.6
2018-01-16T06:39:03.071Z,10.6
2018-01-16T06:40:04.795Z,10.6
2018-01-16T06:41:06.524Z,10.7
2018-01-16T06:42:08.253Z,10.7
2018-01-16T06:43:09.955Z,10.6
2018-01-16T06:44:11.680Z,10.6
2018-01-16T06:45:13.411Z,10.6
2018-01-16T06:46:15.171Z,10.7
2018-01-16T06:47:16.888Z,10.6
2018-01-16T06:48:18.606Z,10.6
2018-01-16T06:49:20.338Z,10.6
2018-01-16T06:50:22.121Z,10.6
2018-01-16T06:51:23.846Z,10.7
2018-01-16T06:52:25.602Z,10.6
2018-01-16T06:53:27.358Z,10.6
2018-01-16T06:54:29.122Z,10.7
2018-01-16T06:55:30.860Z,10.7
2018-01-16T06:56:32.584Z,10.7
2018-01-16T06:57:34.329Z,10.6
2018-01-16T06:58:37.200Z,10.6
2018-01-16T06:59:38.987Z,10.6
2018-01-16T07:00:40.702Z,10.6
2018-01-16T07:01:42.459Z,10.7
2018-01-16T07:02:44.189Z,10.7
2018-01-16T07:03:45.921Z,10.7
2018-01-16T07:04:47.786Z,10.7
2018-01-16T07:05:49.511Z,10.7
2018-01-16T07:06:51.229Z,10.6
2018-01-16T07:07:52.946Z,10.7
2018-01-16T07:08:54.668Z,10.6
2018-01-16T07:09:56.376Z,10.6
2018-01-16T07:10:58.073Z,10.7
2018-01-16T07:11:59.785Z,10.7
2018-01-16T07:13:01.462Z,10.7
2018-01-16T07:14:03.911Z,10.7
2018-01-16T07:15:05.630Z,10.8
2018-01-16T07:16:07.373Z,10.7
2018-01-16T07:17:09.112Z,10.7
2018-01-16T07:18:10.805Z,10.7
2018-01-16T07:19:12.544Z,10.6
2018-01-16T07:20:14.244Z,10.7
2018-01-16T07:21:15.970Z,10.7
2018-01-16T07:22:17.711Z,10.7
2018-01-16T07:23:19.430Z,10.8
2018-01-16T07:24:21.149Z,10.8
2018-01-16T07:25:22.868Z,10.7
2018-01-16T07:26:24.616Z,10.7
2018-01-16T07:27:26.333Z,10.7
2018-01-16T07:28:28.034Z,10.8
2018-01-16T07:29:29.753Z,10.8
2018-01-16T07:30:31.534Z,10.8
2018-01-16T07:31:33.256Z,10.7
2018-01-16T07:32:35.031Z,10.8
2018-01-16T07:33:36.745Z,10.8
2018-01-16T07:34:38.492Z,10.8
2018-01-16T07:35:40.236Z,10.8
2018-01-16T07:36:41.945Z,10.8
2018-01-16T07:37:43.652Z,10.8
2018-01-16T07:38:45.387Z,10.8
2018-01-16T07:39:47.177Z,10.8
2018-01-16T07:40:48.878Z,10.8
2018-01-16T07:41:50.590Z,10.9
2018-01-16T07:42:52.312Z,10.9
2018-01-16T07:43:54.030Z,10.8
2018-01-16T07:44:55.748Z,10.9
2018-01-16T07:45:57.480Z,10.9
2018-01-16T07:46:59.238Z,10.9
2018-01-16T07:48:00.947Z,10.9
2018-01-16T07:49:02.673Z,10.9
2018-01-16T07:50:04.410Z,10.9
2018-01-16T07:51:06.154Z,10.9
2018-01-16T07:52:07.873Z,10.9
2018-01-16T07:53:09.654Z,10.8
2018-01-16T07:54:11.410Z,11.0
2018-01-16T07:55:13.112Z,10.9
2018-01-16T07:56:14.854Z,10.9
2018-01-16T07:57:16.574Z,10.9
2018-01-16T07:58:18.365Z,11.0
2018-01-16T07:59:20.141Z,10.9
2018-01-16T08:00:22.032Z,11.0
2018-01-16T08:01:23.753Z,11.0
2018-01-16T08:02:25.486Z,11.0
2018-01-16T08:03:27.233Z,10.9
2018-01-16T08:04:28.930Z,11.0
2018-01-16T08:05:30.678Z,11.0
2018-01-16T08:06:32.441Z,10.9
2018-01-16T08:07:34.148Z,11.0
2018-01-16T08:08:35.875Z,11.0
2018-01-16T08:09:37.580Z,11.0
2018-01-16T08:10:39.311Z,10.9
2018-01-16T08:11:41.066Z,11.0
2018-01-16T08:12:42.827Z,11.0
2018-01-16T08:13:44.579Z,11.0
2018-01-16T08:14:46.301Z,11.0
2018-01-16T08:15:48.061Z,10.9
2018-01-16T08:16:49.772Z,11.0
2018-01-16T08:17:51.504Z,11.1
2018-01-16T08:18:53.216Z,11.0
2018-01-16T08:19:54.934Z,11.0
2018-01-16T08:20:56.650Z,11.2
2018-01-16T08:21:58.426Z,11.2
2018-01-16T08:23:00.216Z,11.1
2018-01-16T08:24:01.969Z,11.1
2018-01-16T08:25:03.793Z,11.1
2018-01-16T08:26:05.535Z,11.1
2018-01-16T08:27:07.308Z,11.1
2018-01-16T08:28:09.055Z,11.0
2018-01-16T08:29:10.811Z,11.1
2018-01-16T08:30:12.585Z,11.1
2018-01-16T08:31:14.301Z,11.1
2018-01-16T08:32:16.070Z,11.2
2018-01-16T08:33:17.823Z,11.2
2018-01-16T08:34:19.593Z,11.2
2018-01-16T08:35:21.334Z,11.2
2018-01-16T08:36:23.083Z,11.2
2018-01-16T08:37:24.887Z,11.3
2018-01-16T08:38:26.608Z,11.2
2018-01-16T08:39:28.350Z,11.3
2018-01-16T08:40:30.078Z,11.3
2018-01-16T08:41:31.815Z,11.3
2018-01-16T08:42:33.578Z,11.3
2018-01-16T08:43:35.316Z,11.4
2018-01-16T08:44:37.037Z,11.3
2018-01-16T08:45:38.752Z,11.3
2018-01-16T08:46:40.483Z,11.3
2018-01-16T08:47:42.233Z,11.3
2018-01-16T08:48:43.988Z,11.3
2018-01-16T08:49:45.716Z,11.3
2018-01-16T08:50:47.462Z,11.3
2018-01-16T08:51:49.201Z,11.4
2018-01-16T08:52:50.922Z,11.3
2018-01-16T08:53:52.654Z,11.4
2018-01-16T08:54:54.389Z,11.5
2018-01-16T08:55:56.394Z,11.4
2018-01-16T08:56:58.113Z,11.4
2018-01-16T08:57:59.904Z,11.5
2018-01-16T08:59:01.672Z,11.5
2018-01-16T09:00:03.429Z,11.5
2018-01-16T09:01:05.186Z,11.4
2018-01-16T09:02:07.033Z,11.5
2018-01-16T09:03:08.774Z,11.5
2018-01-16T09:04:10.492Z,11.5
2018-01-16T09:05:12.268Z,11.5
2018-01-16T09:06:14.145Z,11.5
2018-01-16T09:07:15.877Z,11.6
2018-01-16T09:08:17.624Z,11.6
2018-01-16T09:09:19.355Z,11.6
2018-01-16T09:10:21.108Z,11.6
2018-01-16T09:11:22.815Z,11.5
2018-01-16T09:12:24.678Z,11.6
2018-01-16T09:13:26.388Z,11.6
2018-01-16T09:14:28.099Z,11.6
2018-01-16T09:15:29.862Z,11.6
2018-01-16T09:16:31.608Z,11.7
2018-01-16T09:17:33.320Z,11.7
2018-01-16T09:18:35.125Z,11.7
2018-01-16T09:19:36.858Z,11.7
2018-01-16T09:20:38.605Z,11.7
2018-01-16T09:21:40.384Z,11.7
2018-01-16T09:22:42.105Z,11.8
2018-01-16T09:23:43.819Z,11.7
2018-01-16T09:24:45.539Z,11.8
2018-01-16T09:25:47.258Z,11.8
2018-01-16T09:26:48.988Z,11.8
2018-01-16T09:27:50.704Z,11.8
2018-01-16T09:28:52.430Z,11.9
2018-01-16T09:29:54.180Z,11.9
2018-01-16T09:30:55.897Z,11.9
2018-01-16T09:31:57.694Z,11.9
2018-01-16T09:32:59.524Z,11.9
2018-01-16T09:34:01.230Z,11.9
2018-01-16T09:35:03.014Z,11.9
2018-01-16T09:36:04.733Z,11.9
2018-01-16T09:37:06.467Z,11.9
2018-01-16T09:38:08.261Z,12.0
2018-01-16T09:39:09.986Z,12.0
2018-01-16T09:40:11.741Z,12.1
2018-01-16T09:41:13.467Z,12.1
2018-01-16T09:42:15.217Z,12.1
2018-01-16T09:43:16.970Z,12.2
2018-01-16T09:44:18.674Z,12.1
2018-01-16T09:45:20.486Z,12.2
2018-01-16T09:46:22.227Z,12.3
2018-01-16T09:47:23.975Z,12.2
2018-01-16T09:48:25.741Z,12.2
2018-01-16T09:49:27.582Z,12.3
2018-01-16T09:50:29.610Z,12.3
2018-01-16T09:51:31.365Z,12.3
2018-01-16T09:52:33.244Z,12.3
2018-01-16T09:53:35.235Z,12.3
2018-01-16T09:54:37.104Z,12.2
2018-01-16T09:55:38.963Z,12.4
2018-01-16T09:56:41.316Z,12.4
2018-01-16T09:57:43.066Z,12.4
2018-01-16T09:58:45.020Z,12.5
2018-01-16T09:59:47.150Z,12.5
2018-01-16T10:00:49.139Z,12.4
2018-01-16T10:01:51.041Z,12.4
2018-01-16T10:02:52.987Z,12.4
2018-01-16T10:03:54.929Z,12.5
2018-01-16T10:04:56.904Z,12.6
2018-01-16T10:05:58.638Z,12.6
2018-01-16T10:07:00.361Z,12.6
2018-01-16T10:08:02.076Z,12.6
2018-01-16T10:09:03.846Z,12.7
2018-01-16T10:10:05.637Z,12.7
2018-01-16T10:11:07.369Z,12.8
2018-01-16T10:12:09.110Z,12.7
2018-01-16T10:13:10.821Z,12.8
2018-01-16T10:14:12.549Z,12.9
2018-01-16T10:15:14.319Z,12.9
2018-01-16T10:16:16.039Z,13.0
2018-01-16T10:17:17.774Z,12.9
2018-01-16T10:18:19.472Z,13.1
2018-01-16T10:19:21.225Z,13.0
2018-01-16T10:20:22.968Z,12.8
2018-01-16T10:21:24.699Z,13.0
2018-01-16T10:22:26.465Z,12.9
2018-01-16T10:23:28.174Z,12.9
2018-01-16T10:24:29.898Z,13.0
2018-01-16T10:25:31.625Z,13.0
2018-01-16T10:26:33.376Z,13.0
2018-01-16T10:27:35.097Z,13.0
2018-01-16T10:28:36.804Z,13.2
2018-01-16T10:29:38.538Z,13.3
2018-01-16T10:30:40.248Z,13.4
2018-01-16T10:31:41.996Z,13.4
2018-01-16T10:32:43.769Z,13.5
2018-01-16T10:33:45.526Z,13.6
2018-01-16T10:34:47.249Z,13.5
2018-01-16T10:35:48.989Z,13.5
2018-01-16T10:36:50.740Z,13.5
2018-01-16T10:37:52.479Z,13.5
2018-01-16T10:38:54.206Z,13.5
2018-01-16T10:39:55.922Z,13.4
2018-01-16T10:40:57.704Z,13.5
2018-01-16T10:41:59.428Z,13.4
2018-01-16T10:43:01.151Z,13.5
2018-01-16T10:44:02.867Z,13.6
2018-01-16T10:45:04.600Z,13.6
2018-01-16T10:46:06.387Z,13.6
2018-01-16T10:47:08.119Z,13.9
2018-01-16T10:48:09.847Z,14.4
2018-01-16T10:49:11.604Z,15.0
2018-01-16T10:50:13.338Z,15.4
2018-01-16T10:51:15.081Z,15.4
2018-01-16T10:52:16.820Z,15.8
2018-01-16T10:53:18.530Z,16.0
2018-01-16T10:54:20.254Z,16.1
2018-01-16T10:55:21.983Z,15.9
2018-01-16T10:56:23.749Z,15.6
2018-01-16T10:57:25.476Z,16.0
2018-01-16T10:58:27.264Z,16.3
2018-01-16T10:59:29.053Z,16.5
2018-01-16T11:00:30.760Z,16.5
2018-01-16T11:01:32.488Z,16.4
2018-01-16T11:02:34.258Z,16.3
2018-01-16T11:03:35.982Z,16.3
2018-01-16T11:04:37.730Z,16.2
2018-01-16T11:05:39.444Z,16.4
2018-01-16T11:06:41.242Z,16.6
2018-01-16T11:07:42.973Z,16.4
2018-01-16T11:08:44.711Z,16.5
2018-01-16T11:09:46.448Z,16.2
2018-01-16T11:10:48.189Z,16.5
2018-01-16T11:11:49.914Z,16.6
2018-01-16T11:12:51.636Z,16.3
2018-01-16T11:13:53.365Z,16.2
2018-01-16T11:14:55.082Z,16.0
2018-01-16T11:15:56.817Z,15.9
2018-01-16T11:16:58.526Z,15.7
2018-01-16T11:18:00.285Z,15.5
2018-01-16T11:19:02.033Z,15.4
2018-01-16T11:20:03.762Z,15.4
2018-01-16T11:21:05.501Z,15.4
2018-01-16T11:22:07.232Z,15.1
2018-01-16T11:23:09.034Z,14.9
2018-01-16T11:24:10.744Z,15.0
2018-01-16T11:25:12.598Z,14.9
2018-01-16T11:26:14.314Z,14.9
2018-01-16T11:27:16.044Z,14.9
2018-01-16T11:28:17.752Z,14.8
2018-01-16T11:29:19.475Z,14.8
2018-01-16T11:30:21.268Z,14.9
2018-01-16T11:31:23.013Z,14.9
2018-01-16T11:32:24.794Z,15.0
2018-01-16T11:33:26.554Z,15.1
2018-01-16T11:34:28.237Z,15.1
2018-01-16T11:35:29.957Z,15.0
2018-01-16T11:36:31.741Z,14.9
2018-01-16T11:37:33.454Z,14.9
2018-01-16T11:38:35.180Z,14.9
2018-01-16T11:39:36.975Z,14.9
2018-01-16T11:40:38.693Z,14.9
2018-01-16T11:41:40.453Z,15.1
2018-01-16T11:42:42.189Z,15.0
2018-01-16T11:43:43.982Z,15.0
2018-01-16T11:44:45.717Z,15.0
2018-01-16T11:45:47.446Z,15.2
2018-01-16T11:46:49.179Z,15.3
2018-01-16T11:47:50.907Z,15.2
2018-01-16T11:48:52.624Z,15.0
2018-01-16T11:49:54.353Z,14.9
2018-01-16T11:50:56.124Z,14.9
2018-01-16T11:51:57.819Z,15.1
2018-01-16T11:52:59.553Z,15.1
2018-01-16T11:54:01.298Z,15.0
2018-01-16T11:55:03.023Z,15.2
2018-01-16T11:56:04.733Z,15.4
2018-01-16T11:57:06.448Z,15.6
2018-01-16T11:58:08.187Z,15.8
2018-01-16T11:59:09.966Z,16.0
2018-01-16T12:00:11.691Z,16.1
2018-01-16T12:01:13.427Z,16.3
2018-01-16T12:02:15.170Z,16.2
2018-01-16T12:03:16.890Z,16.2
2018-01-16T12:04:18.615Z,16.3
2018-01-16T12:05:20.312Z,16.3
2018-01-16T12:06:22.102Z,16.1
2018-01-16T12:07:23.785Z,16.2
2018-01-16T12:08:25.498Z,16.1
2018-01-16T12:09:27.210Z,16.1
2018-01-16T12:10:28.914Z,16.0
2018-01-16T12:11:30.641Z,15.8
2018-01-16T12:12:32.367Z,15.7
2018-01-16T12:13:34.148Z,15.7
2018-01-16T12:14:35.893Z,15.7
2018-01-16T12:15:37.602Z,15.6
2018-01-16T12:16:39.321Z,15.6
2018-01-16T12:17:41.041Z,15.6
2018-01-16T12:18:42.780Z,15.7
2018-01-16T12:19:44.496Z,15.7
2018-01-16T12:20:46.207Z,15.8
2018-01-16T12:21:47.920Z,15.7
2018-01-16T12:22:49.668Z,15.8
2018-01-16T12:23:51.387Z,15.9
2018-01-16T12:24:53.112Z,15.7
2018-01-16T12:25:54.839Z,15.9
2018-01-16T12:26:56.588Z,16.0
2018-01-16T12:27:58.308Z,16.2
2018-01-16T12:29:00.052Z,16.2
2018-01-16T12:30:01.800Z,16.3
2018-01-16T12:31:03.533Z,16.4
2018-01-16T12:32:05.257Z,16.5
2018-01-16T12:33:06.977Z,16.7
2018-01-16T12:34:08.699Z,16.7
2018-01-16T12:35:10.460Z,16.7
2018-01-16T12:36:12.205Z,17.1
2018-01-16T12:37:13.953Z,17.5
2018-01-16T12:38:15.683Z,17.6
2018-01-16T12:39:17.466Z,18.0
2018-01-16T12:40:19.213Z,17.9
2018-01-16T12:41:20.965Z,17.8
2018-01-16T12:42:22.675Z,17.4
2018-01-16T12:43:24.425Z,16.9
2018-01-16T12:44:26.152Z,16.6
2018-01-16T12:45:27.890Z,16.5
2018-01-16T12:46:29.632Z,16.3
2018-01-16T12:47:31.364Z,16.3
2018-01-16T12:48:33.081Z,16.3
2018-01-16T12:49:34.806Z,16.4
2018-01-16T12:50:36.536Z,16.5
2018-01-16T12:51:38.291Z,16.6
2018-01-16T12:52:40.144Z,16.6
2018-01-16T12:53:41.844Z,16.5
2018-01-16T12:54:43.552Z,16.5
2018-01-16T12:55:45.311Z,16.2
2018-01-16T12:56:47.028Z,16.3
2018-01-16T12:57:48.754Z,16.1
2018-01-16T12:58:50.466Z,16.0
2018-01-16T12:59:52.215Z,16.0
2018-01-16T13:00:53.994Z,16.0
2018-01-16T13:01:55.706Z,16.1
2018-01-16T13:02:57.441Z,16.1
2018-01-16T13:03:59.196Z,16.1
2018-01-16T13:05:00.892Z,16.1
2018-01-16T13:06:02.612Z,16.2
2018-01-16T13:07:04.344Z,16.3
2018-01-16T13:08:06.077Z,16.3
2018-01-16T13:09:07.820Z,16.5
2018-01-16T13:10:09.549Z,16.5
2018-01-16T13:11:11.277Z,16.5
2018-01-16T13:12:14.302Z,16.4
2018-01-16T13:13:16.016Z,16.5
2018-01-16T13:14:17.735Z,16.4
2018-01-16T13:15:19.470Z,16.5
2018-01-16T13:16:21.203Z,16.2
2018-01-16T13:17:22.967Z,15.9
2018-01-16T13:18:24.686Z,15.8
2018-01-16T13:19:26.442Z,16.2
2018-01-16T13:20:28.356Z,16.6
2018-01-16T13:21:30.081Z,16.9
2018-01-16T13:22:31.791Z,17.2
2018-01-16T13:23:33.546Z,17.3
2018-01-16T13:24:35.294Z,17.1
2018-01-16T13:25:37.062Z,16.8
2018-01-16T13:26:38.815Z,16.7
2018-01-16T13:27:40.530Z,16.6
2018-01-16T13:28:42.300Z,16.5
2018-01-16T13:29:44.027Z,16.4
2018-01-16T13:30:45.802Z,16.3
2018-01-16T13:31:47.584Z,16.2
2018-01-16T13:32:49.468Z,16.2
2018-01-16T13:33:51.155Z,16.1
2018-01-16T13:34:52.882Z,16.0
2018-01-16T13:35:54.623Z,15.9
2018-01-16T13:36:56.371Z,15.7
2018-01-16T13:37:58.123Z,15.7
2018-01-16T13:38:59.860Z,15.7
2018-01-16T13:40:01.620Z,15.7
2018-01-16T13:41:03.365Z,15.8
2018-01-16T13:42:05.139Z,15.9